首页
METAR-TAF:

METAR-TAF

机场 :

貝爾格勒尼古拉·特斯拉機場

贝尔格莱德, 塞尔维亚

纬度: 44-49N, 经度: 020-17E, 海拔: 96米

当前天气观测

该预报发布于27分钟前的15:30 UTC
风速9节,风向东南
温度 10°C
湿度 57%
气压 993 hPa
能见度10公里或以上
1500米以下无云,无积雨云

METAR: LYBE 131530Z 14009KT CAVOK 10/02 Q0993 NOSIG

时间: 16:57 (15:57 UTC)

预报

该预报发布于4小时和57分钟前的11:00 UTC
预报有效从13日的 12点(UTC)到 14日的 12点(UTC)
风速12节,风向东南
能见度10公里或以上
1500米以下无云,无积雨云
短暂存在
从 13日的 18点(UTC)到 14日的 04点(UTC)
风速15节,风向东南,有时为28节阵风
成为
从 14日的 07点(UTC)到 14日的 09点(UTC)
风速7节,风向西
短暂存在
从 14日的 07点(UTC)到 14日的 10点(UTC)
能見度: 5000
短暂存在
从 14日的 10点(UTC)到 14日的 12点(UTC)
多云层高于700英尺
多云层高于2700英尺

TAF: LYBE 131100Z 1312/1412 14012KT CAVOK TX11/1313Z TN06/1406Z TEMPO 1318/1404 14015G28KT BECMG 1407/1409 26007KT TEMPO 1407/1410 5000 RA TEMPO 1410/1412 BKN007 BKN027

超过4000个机场的气象观测和天气预报(METAR&TAF报告)。

可查询的气象台以黄色和红色小点在地图上表示。

将鼠标移到小点上方,可查看气象台名称。

然后点击查看天气观测和预报。

如需切换地图:点击带黑十字的绿色按钮放大地图;点击带横线的绿色按钮缩小地图;或者点击绿色箭头查看邻近地区的地图。


METAR-TAF: